sensor_id;sensor_type;location;lat;lon;timestamp;P1;durP1;ratioP1;P2;durP2;ratioP2
80576;SDS011;69937;52.420;10.538;2023-09-19T00:04:32;4.68;;;0.85;;
80576;SDS011;69937;52.420;10.538;2023-09-19T00:09:32;1.13;;;0.80;;
80576;SDS011;69937;52.420;10.538;2023-09-19T00:14:37;1.48;;;0.82;;
80576;SDS011;69937;52.420;10.538;2023-09-19T00:19:37;2.22;;;0.70;;
80576;SDS011;69937;52.420;10.538;2023-09-19T00:24:38;0.90;;;0.55;;
80576;SDS011;69937;52.420;10.538;2023-09-19T00:29:38;2.28;;;1.02;;
80576;SDS011;69937;52.420;10.538;2023-09-19T00:34:39;1.08;;;0.50;;
80576;SDS011;69937;52.420;10.538;2023-09-19T00:39:39;1.30;;;0.85;;
80576;SDS011;69937;52.420;10.538;2023-09-19T00:44:41;1.05;;;0.88;;
80576;SDS011;69937;52.420;10.538;2023-09-19T00:49:41;1.10;;;0.98;;
80576;SDS011;69937;52.420;10.538;2023-09-19T00:54:42;1.83;;;0.85;;
80576;SDS011;69937;52.420;10.538;2023-09-19T00:59:42;2.35;;;0.63;;
80576;SDS011;69937;52.420;10.538;2023-09-19T01:04:44;6.35;;;1.00;;
80576;SDS011;69937;52.420;10.538;2023-09-19T01:09:45;1.13;;;0.77;;
80576;SDS011;69937;52.420;10.538;2023-09-19T01:14:59;4.00;;;1.02;;
80576;SDS011;69937;52.420;10.538;2023-09-19T01:20:21;1.60;;;1.08;;
80576;SDS011;69937;52.420;10.538;2023-09-19T01:25:42;2.80;;;1.08;;
80576;SDS011;69937;52.420;10.538;2023-09-19T01:31:00;4.60;;;1.08;;
80576;SDS011;69937;52.420;10.538;2023-09-19T01:36:03;4.95;;;1.35;;
80576;SDS011;69937;52.420;10.538;2023-09-19T01:41:06;4.82;;;1.38;;
80576;SDS011;69937;52.420;10.538;2023-09-19T01:46:17;3.60;;;1.40;;
80576;SDS011;69937;52.420;10.538;2023-09-19T01:51:53;2.40;;;1.52;;
80576;SDS011;69937;52.420;10.538;2023-09-19T01:57:08;2.15;;;1.52;;
80576;SDS011;69937;52.420;10.538;2023-09-19T02:02:15;3.90;;;1.20;;
80576;SDS011;69937;52.420;10.538;2023-09-19T02:07:17;3.85;;;1.27;;
80576;SDS011;69937;52.420;10.538;2023-09-19T02:12:18;4.95;;;1.55;;
80576;SDS011;69937;52.420;10.538;2023-09-19T02:17:18;3.72;;;1.65;;
80576;SDS011;69937;52.420;10.538;2023-09-19T02:22:19;2.92;;;1.75;;
80576;SDS011;69937;52.420;10.538;2023-09-19T02:27:19;2.65;;;1.63;;
80576;SDS011;69937;52.420;10.538;2023-09-19T02:32:20;4.75;;;2.08;;
80576;SDS011;69937;52.420;10.538;2023-09-19T02:37:21;4.57;;;1.85;;
80576;SDS011;69937;52.420;10.538;2023-09-19T02:42:21;4.57;;;1.77;;
80576;SDS011;69937;52.420;10.538;2023-09-19T02:47:22;6.88;;;1.90;;
80576;SDS011;69937;52.420;10.538;2023-09-19T02:52:23;4.05;;;1.70;;
80576;SDS011;69937;52.420;10.538;2023-09-19T02:57:24;3.90;;;1.65;;
80576;SDS011;69937;52.420;10.538;2023-09-19T03:02:25;4.85;;;2.08;;
80576;SDS011;69937;52.420;10.538;2023-09-19T03:07:27;4.85;;;1.80;;
80576;SDS011;69937;52.420;10.538;2023-09-19T03:12:28;4.82;;;1.98;;
80576;SDS011;69937;52.420;10.538;2023-09-19T03:17:29;4.65;;;2.38;;
80576;SDS011;69937;52.420;10.538;2023-09-19T03:22:29;3.58;;;1.73;;
80576;SDS011;69937;52.420;10.538;2023-09-19T03:27:30;3.70;;;1.92;;
80576;SDS011;69937;52.420;10.538;2023-09-19T03:32:30;4.82;;;1.73;;
80576;SDS011;69937;52.420;10.538;2023-09-19T03:37:31;5.15;;;2.28;;
80576;SDS011;69937;52.420;10.538;2023-09-19T03:42:33;6.05;;;2.33;;
80576;SDS011;69937;52.420;10.538;2023-09-19T03:47:36;5.13;;;2.78;;
80576;SDS011;69937;52.420;10.538;2023-09-19T03:52:37;6.93;;;2.25;;
80576;SDS011;69937;52.420;10.538;2023-09-19T03:57:37;6.43;;;2.60;;
80576;SDS011;69937;52.420;10.538;2023-09-19T04:02:38;6.22;;;2.58;;
80576;SDS011;69937;52.420;10.538;2023-09-19T04:07:39;6.15;;;2.97;;
80576;SDS011;69937;52.420;10.538;2023-09-19T04:12:40;6.45;;;2.78;;
80576;SDS011;69937;52.420;10.538;2023-09-19T04:17:50;5.78;;;2.75;;
80576;SDS011;69937;52.420;10.538;2023-09-19T04:22:51;8.27;;;3.25;;
80576;SDS011;69937;52.420;10.538;2023-09-19T04:27:51;8.38;;;3.35;;
80576;SDS011;69937;52.420;10.538;2023-09-19T04:32:52;6.28;;;2.92;;
80576;SDS011;69937;52.420;10.538;2023-09-19T04:37:53;5.10;;;2.47;;
80576;SDS011;69937;52.420;10.538;2023-09-19T04:42:55;9.38;;;2.70;;
80576;SDS011;69937;52.420;10.538;2023-09-19T04:47:59;5.38;;;1.98;;
80576;SDS011;69937;52.420;10.538;2023-09-19T04:53:00;5.32;;;2.78;;
80576;SDS011;69937;52.420;10.538;2023-09-19T04:58:01;4.35;;;2.58;;
80576;SDS011;69937;52.420;10.538;2023-09-19T05:03:02;5.95;;;2.70;;
80576;SDS011;69937;52.420;10.538;2023-09-19T05:08:04;7.25;;;3.30;;
80576;SDS011;69937;52.420;10.538;2023-09-19T05:13:05;7.40;;;3.25;;
80576;SDS011;69937;52.420;10.538;2023-09-19T05:18:07;8.93;;;3.70;;
80576;SDS011;69937;52.420;10.538;2023-09-19T05:23:08;6.68;;;3.60;;
80576;SDS011;69937;52.420;10.538;2023-09-19T05:28:09;7.30;;;3.60;;
80576;SDS011;69937;52.420;10.538;2023-09-19T05:33:11;8.30;;;3.75;;
80576;SDS011;69937;52.420;10.538;2023-09-19T05:38:12;8.07;;;3.30;;
80576;SDS011;69937;52.420;10.538;2023-09-19T05:43:13;10.98;;;3.70;;
80576;SDS011;69937;52.420;10.538;2023-09-19T05:48:14;7.40;;;3.22;;
80576;SDS011;69937;52.420;10.538;2023-09-19T05:53:15;9.13;;;3.90;;
80576;SDS011;69937;52.420;10.538;2023-09-19T05:58:17;7.35;;;3.45;;
80576;SDS011;69937;52.420;10.538;2023-09-19T06:03:19;4.53;;;3.40;;
80576;SDS011;69937;52.420;10.538;2023-09-19T06:08:20;6.85;;;3.03;;
80576;SDS011;69937;52.420;10.538;2023-09-19T06:13:21;8.07;;;3.90;;
80576;SDS011;69937;52.420;10.538;2023-09-19T06:18:21;14.00;;;4.32;;
80576;SDS011;69937;52.420;10.538;2023-09-19T06:23:26;6.47;;;3.38;;
80576;SDS011;69937;52.420;10.538;2023-09-19T06:28:29;11.23;;;3.55;;
80576;SDS011;69937;52.420;10.538;2023-09-19T06:33:29;6.47;;;2.95;;
80576;SDS011;69937;52.420;10.538;2023-09-19T06:38:31;10.43;;;3.45;;
80576;SDS011;69937;52.420;10.538;2023-09-19T06:43:34;5.95;;;2.67;;
80576;SDS011;69937;52.420;10.538;2023-09-19T06:48:35;6.47;;;2.58;;
80576;SDS011;69937;52.420;10.538;2023-09-19T06:53:35;9.75;;;4.05;;
80576;SDS011;69937;52.420;10.538;2023-09-19T06:58:36;12.00;;;3.17;;
80576;SDS011;69937;52.420;10.538;2023-09-19T07:03:37;8.38;;;2.85;;
80576;SDS011;69937;52.420;10.538;2023-09-19T07:08:38;7.28;;;2.42;;
80576;SDS011;69937;52.420;10.538;2023-09-19T07:13:39;6.35;;;2.88;;
80576;SDS011;69937;52.420;10.538;2023-09-19T07:18:40;7.03;;;3.70;;
80576;SDS011;69937;52.420;10.538;2023-09-19T07:23:40;7.60;;;2.80;;
80576;SDS011;69937;52.420;10.538;2023-09-19T07:28:41;7.13;;;2.55;;
80576;SDS011;69937;52.420;10.538;2023-09-19T07:33:42;7.88;;;2.55;;
80576;SDS011;69937;52.420;10.538;2023-09-19T07:38:43;10.05;;;2.80;;
80576;SDS011;69937;52.420;10.538;2023-09-19T07:43:43;6.55;;;3.22;;
80576;SDS011;69937;52.420;10.538;2023-09-19T07:48:44;8.82;;;2.65;;
80576;SDS011;69937;52.420;10.538;2023-09-19T07:53:48;5.70;;;2.40;;
80576;SDS011;69937;52.420;10.538;2023-09-19T07:58:49;8.07;;;3.17;;
80576;SDS011;69937;52.420;10.538;2023-09-19T08:03:49;5.07;;;2.03;;
80576;SDS011;69937;52.420;10.538;2023-09-19T08:08:51;8.98;;;2.10;;
80576;SDS011;69937;52.420;10.538;2023-09-19T08:13:53;6.75;;;1.85;;
80576;SDS011;69937;52.420;10.538;2023-09-19T08:18:54;6.53;;;1.63;;
80576;SDS011;69937;52.420;10.538;2023-09-19T08:23:55;11.00;;;1.65;;
80576;SDS011;69937;52.420;10.538;2023-09-19T08:28:57;7.22;;;2.10;;
80576;SDS011;69937;52.420;10.538;2023-09-19T08:33:57;7.72;;;1.42;;
80576;SDS011;69937;52.420;10.538;2023-09-19T08:38:59;7.05;;;1.60;;
80576;SDS011;69937;52.420;10.538;2023-09-19T08:44:00;8.13;;;1.30;;
80576;SDS011;69937;52.420;10.538;2023-09-19T08:49:05;7.75;;;1.63;;
80576;SDS011;69937;52.420;10.538;2023-09-19T08:59:29;10.68;;;1.45;;
80576;SDS011;69937;52.420;10.538;2023-09-19T09:04:31;10.55;;;1.70;;
80576;SDS011;69937;52.420;10.538;2023-09-19T09:09:34;6.50;;;1.08;;
80576;SDS011;69937;52.420;10.538;2023-09-19T09:14:35;9.48;;;1.08;;
80576;SDS011;69937;52.420;10.538;2023-09-19T09:19:36;6.20;;;1.33;;
80576;SDS011;69937;52.420;10.538;2023-09-19T09:24:38;4.85;;;1.20;;
80576;SDS011;69937;52.420;10.538;2023-09-19T09:29:54;3.40;;;0.82;;
80576;SDS011;69937;52.420;10.538;2023-09-19T09:34:56;5.07;;;1.05;;
80576;SDS011;69937;52.420;10.538;2023-09-19T09:40:00;4.15;;;0.98;;
80576;SDS011;69937;52.420;10.538;2023-09-19T09:45:23;3.78;;;1.15;;
80576;SDS011;69937;52.420;10.538;2023-09-19T09:50:34;4.88;;;1.05;;
80576;SDS011;69937;52.420;10.538;2023-09-19T09:56:06;7.35;;;1.23;;
80576;SDS011;69937;52.420;10.538;2023-09-19T10:01:11;2.72;;;0.90;;
80576;SDS011;69937;52.420;10.538;2023-09-19T10:06:16;4.70;;;1.05;;
80576;SDS011;69937;52.420;10.538;2023-09-19T10:11:23;6.10;;;1.42;;
80576;SDS011;69937;52.420;10.538;2023-09-19T10:16:30;2.90;;;0.77;;
80576;SDS011;69937;52.420;10.538;2023-09-19T10:21:32;7.57;;;2.15;;
80576;SDS011;69937;52.420;10.538;2023-09-19T10:26:35;4.60;;;1.05;;
80576;SDS011;69937;52.420;10.538;2023-09-19T10:31:37;7.07;;;1.20;;
80576;SDS011;69937;52.420;10.538;2023-09-19T10:36:44;6.18;;;1.05;;
80576;SDS011;69937;52.420;10.538;2023-09-19T10:41:47;7.40;;;1.33;;
80576;SDS011;69937;52.420;10.538;2023-09-19T10:46:53;5.22;;;1.02;;
80576;SDS011;69937;52.420;10.538;2023-09-19T10:51:55;7.18;;;1.52;;
80576;SDS011;69937;52.420;10.538;2023-09-19T10:57:00;8.77;;;1.27;;
80576;SDS011;69937;52.420;10.538;2023-09-19T11:02:17;4.18;;;1.35;;
80576;SDS011;69937;52.420;10.538;2023-09-19T11:07:18;7.28;;;1.27;;
80576;SDS011;69937;52.420;10.538;2023-09-19T11:17:41;9.35;;;1.75;;
80576;SDS011;69937;52.420;10.538;2023-09-19T11:33:22;10.07;;;1.23;;
80576;SDS011;69937;52.420;10.538;2023-09-19T11:48:47;10.90;;;1.30;;
80576;SDS011;69937;52.420;10.538;2023-09-19T11:53:50;10.48;;;1.30;;
80576;SDS011;69937;52.420;10.538;2023-09-19T11:58:52;4.97;;;0.88;;
80576;SDS011;69937;52.420;10.538;2023-09-19T12:03:55;4.45;;;0.80;;
80576;SDS011;69937;52.420;10.538;2023-09-19T12:08:58;4.10;;;1.08;;
80576;SDS011;69937;52.420;10.538;2023-09-19T12:13:59;7.63;;;1.05;;
80576;SDS011;69937;52.420;10.538;2023-09-19T12:19:17;9.75;;;1.73;;
80576;SDS011;69937;52.420;10.538;2023-09-19T12:24:21;7.05;;;1.52;;
80576;SDS011;69937;52.420;10.538;2023-09-19T12:29:21;7.47;;;1.77;;
80576;SDS011;69937;52.420;10.538;2023-09-19T12:34:40;8.15;;;1.40;;
80576;SDS011;69937;52.420;10.538;2023-09-19T12:39:45;4.35;;;1.05;;
80576;SDS011;69937;52.420;10.538;2023-09-19T12:44:50;7.72;;;1.23;;
80576;SDS011;69937;52.420;10.538;2023-09-19T12:55:26;11.00;;;1.85;;
80576;SDS011;69937;52.420;10.538;2023-09-19T13:01:01;4.78;;;1.38;;
80576;SDS011;69937;52.420;10.538;2023-09-19T13:05:56;3.58;;;1.05;;
80576;SDS011;69937;52.420;10.538;2023-09-19T13:11:12;9.45;;;1.33;;
80576;SDS011;69937;52.420;10.538;2023-09-19T13:16:14;5.57;;;1.30;;
80576;SDS011;69937;52.420;10.538;2023-09-19T13:26:36;5.50;;;1.60;;
80576;SDS011;69937;52.420;10.538;2023-09-19T13:31:39;9.07;;;1.38;;
80576;SDS011;69937;52.420;10.538;2023-09-19T13:36:41;5.60;;;1.08;;
80576;SDS011;69937;52.420;10.538;2023-09-19T13:41:46;3.95;;;1.02;;
80576;SDS011;69937;52.420;10.538;2023-09-19T13:46:47;7.68;;;1.23;;
80576;SDS011;69937;52.420;10.538;2023-09-19T13:51:48;5.22;;;1.33;;
80576;SDS011;69937;52.420;10.538;2023-09-19T13:56:48;4.32;;;1.00;;
80576;SDS011;69937;52.420;10.538;2023-09-19T14:01:49;8.02;;;1.33;;
80576;SDS011;69937;52.420;10.538;2023-09-19T14:06:50;4.53;;;1.30;;
80576;SDS011;69937;52.420;10.538;2023-09-19T14:11:51;3.28;;;0.98;;
80576;SDS011;69937;52.420;10.538;2023-09-19T14:16:52;4.05;;;0.88;;
80576;SDS011;69937;52.420;10.538;2023-09-19T14:21:53;7.13;;;1.10;;
80576;SDS011;69937;52.420;10.538;2023-09-19T14:26:56;3.47;;;1.10;;
80576;SDS011;69937;52.420;10.538;2023-09-19T14:31:57;4.38;;;1.05;;
80576;SDS011;69937;52.420;10.538;2023-09-19T14:36:57;6.32;;;1.17;;
80576;SDS011;69937;52.420;10.538;2023-09-19T14:41:58;6.70;;;1.75;;
80576;SDS011;69937;52.420;10.538;2023-09-19T14:46:59;8.23;;;1.45;;
80576;SDS011;69937;52.420;10.538;2023-09-19T14:51:59;4.05;;;1.23;;
80576;SDS011;69937;52.420;10.538;2023-09-19T14:57:04;3.90;;;1.25;;
80576;SDS011;69937;52.420;10.538;2023-09-19T15:02:04;5.45;;;1.67;;
80576;SDS011;69937;52.420;10.538;2023-09-19T15:07:05;5.80;;;1.38;;
80576;SDS011;69937;52.420;10.538;2023-09-19T15:12:05;4.85;;;1.60;;
80576;SDS011;69937;52.420;10.538;2023-09-19T15:17:08;7.10;;;1.42;;
80576;SDS011;69937;52.420;10.538;2023-09-19T15:22:09;6.00;;;1.27;;
80576;SDS011;69937;52.420;10.538;2023-09-19T15:27:11;5.45;;;1.40;;
80576;SDS011;69937;52.420;10.538;2023-09-19T15:32:11;7.95;;;1.60;;
80576;SDS011;69937;52.420;10.538;2023-09-19T15:37:12;8.18;;;1.02;;
80576;SDS011;69937;52.420;10.538;2023-09-19T15:42:13;4.53;;;1.50;;
80576;SDS011;69937;52.420;10.538;2023-09-19T15:47:16;4.80;;;1.30;;
80576;SDS011;69937;52.420;10.538;2023-09-19T15:52:17;7.90;;;1.73;;
80576;SDS011;69937;52.420;10.538;2023-09-19T15:57:17;4.93;;;1.25;;
80576;SDS011;69937;52.420;10.538;2023-09-19T16:02:18;3.80;;;1.08;;
80576;SDS011;69937;52.420;10.538;2023-09-19T16:07:18;4.78;;;1.75;;
80576;SDS011;69937;52.420;10.538;2023-09-19T16:12:19;4.25;;;1.30;;
80576;SDS011;69937;52.420;10.538;2023-09-19T16:17:20;6.07;;;1.30;;
80576;SDS011;69937;52.420;10.538;2023-09-19T16:22:20;5.35;;;1.25;;
80576;SDS011;69937;52.420;10.538;2023-09-19T16:27:21;6.63;;;1.10;;
80576;SDS011;69937;52.420;10.538;2023-09-19T16:32:21;10.63;;;1.35;;
80576;SDS011;69937;52.420;10.538;2023-09-19T16:37:22;4.25;;;0.95;;
80576;SDS011;69937;52.420;10.538;2023-09-19T16:42:23;3.33;;;1.30;;
80576;SDS011;69937;52.420;10.538;2023-09-19T16:47:24;3.65;;;1.52;;
80576;SDS011;69937;52.420;10.538;2023-09-19T16:52:24;5.07;;;1.10;;
80576;SDS011;69937;52.420;10.538;2023-09-19T16:57:25;7.18;;;1.17;;
80576;SDS011;69937;52.420;10.538;2023-09-19T17:02:25;3.33;;;1.02;;
80576;SDS011;69937;52.420;10.538;2023-09-19T17:07:28;4.47;;;1.27;;
80576;SDS011;69937;52.420;10.538;2023-09-19T17:12:29;7.13;;;1.48;;
80576;SDS011;69937;52.420;10.538;2023-09-19T17:17:30;5.05;;;1.02;;
80576;SDS011;69937;52.420;10.538;2023-09-19T17:22:31;4.15;;;0.90;;
80576;SDS011;69937;52.420;10.538;2023-09-19T17:27:31;6.32;;;1.75;;
80576;SDS011;69937;52.420;10.538;2023-09-19T17:32:34;4.18;;;1.15;;
80576;SDS011;69937;52.420;10.538;2023-09-19T17:37:35;9.82;;;1.65;;
80576;SDS011;69937;52.420;10.538;2023-09-19T17:42:41;4.82;;;1.35;;
80576;SDS011;69937;52.420;10.538;2023-09-19T17:47:42;4.25;;;1.27;;
80576;SDS011;69937;52.420;10.538;2023-09-19T17:52:43;5.55;;;1.50;;
80576;SDS011;69937;52.420;10.538;2023-09-19T17:57:44;5.57;;;1.30;;
80576;SDS011;69937;52.420;10.538;2023-09-19T18:02:47;4.72;;;1.33;;
80576;SDS011;69937;52.420;10.538;2023-09-19T18:07:48;7.88;;;1.02;;
80576;SDS011;69937;52.420;10.538;2023-09-19T18:12:49;3.70;;;1.17;;
80576;SDS011;69937;52.420;10.538;2023-09-19T18:17:51;7.38;;;1.50;;
80576;SDS011;69937;52.420;10.538;2023-09-19T18:22:52;7.95;;;1.50;;
80576;SDS011;69937;52.420;10.538;2023-09-19T18:27:53;4.47;;;1.23;;
80576;SDS011;69937;52.420;10.538;2023-09-19T18:32:54;4.45;;;1.40;;
80576;SDS011;69937;52.420;10.538;2023-09-19T18:37:55;5.15;;;1.80;;
80576;SDS011;69937;52.420;10.538;2023-09-19T18:42:55;5.85;;;1.40;;
80576;SDS011;69937;52.420;10.538;2023-09-19T18:47:56;5.10;;;1.42;;
80576;SDS011;69937;52.420;10.538;2023-09-19T18:52:57;3.92;;;1.13;;
80576;SDS011;69937;52.420;10.538;2023-09-19T18:57:57;5.75;;;1.25;;
80576;SDS011;69937;52.420;10.538;2023-09-19T19:02:58;6.47;;;1.60;;
80576;SDS011;69937;52.420;10.538;2023-09-19T19:08:00;5.88;;;1.60;;
80576;SDS011;69937;52.420;10.538;2023-09-19T19:13:01;6.43;;;1.40;;
80576;SDS011;69937;52.420;10.538;2023-09-19T19:18:01;6.38;;;1.02;;
80576;SDS011;69937;52.420;10.538;2023-09-19T19:23:02;3.33;;;1.38;;
80576;SDS011;69937;52.420;10.538;2023-09-19T19:28:03;2.50;;;0.88;;
80576;SDS011;69937;52.420;10.538;2023-09-19T19:33:04;4.10;;;1.15;;
80576;SDS011;69937;52.420;10.538;2023-09-19T19:38:07;3.33;;;1.33;;
80576;SDS011;69937;52.420;10.538;2023-09-19T19:43:09;5.65;;;1.50;;
80576;SDS011;69937;52.420;10.538;2023-09-19T19:48:09;2.65;;;1.10;;
80576;SDS011;69937;52.420;10.538;2023-09-19T19:53:10;4.40;;;1.48;;
80576;SDS011;69937;52.420;10.538;2023-09-19T19:58:11;6.13;;;1.58;;
80576;SDS011;69937;52.420;10.538;2023-09-19T20:03:12;6.93;;;1.83;;
80576;SDS011;69937;52.420;10.538;2023-09-19T20:08:12;7.85;;;2.28;;
80576;SDS011;69937;52.420;10.538;2023-09-19T20:13:13;7.05;;;1.58;;
80576;SDS011;69937;52.420;10.538;2023-09-19T20:18:14;5.93;;;1.17;;
80576;SDS011;69937;52.420;10.538;2023-09-19T20:23:16;10.43;;;1.95;;
80576;SDS011;69937;52.420;10.538;2023-09-19T20:28:16;3.83;;;0.93;;
80576;SDS011;69937;52.420;10.538;2023-09-19T20:33:17;4.60;;;1.05;;
80576;SDS011;69937;52.420;10.538;2023-09-19T20:38:18;7.18;;;1.50;;
80576;SDS011;69937;52.420;10.538;2023-09-19T20:43:18;7.30;;;1.38;;
80576;SDS011;69937;52.420;10.538;2023-09-19T20:48:19;5.13;;;1.38;;
80576;SDS011;69937;52.420;10.538;2023-09-19T20:53:20;3.65;;;1.20;;
80576;SDS011;69937;52.420;10.538;2023-09-19T20:58:20;8.27;;;1.20;;
80576;SDS011;69937;52.420;10.538;2023-09-19T21:03:21;6.68;;;1.40;;
80576;SDS011;69937;52.420;10.538;2023-09-19T21:08:22;4.35;;;1.13;;
80576;SDS011;69937;52.420;10.538;2023-09-19T21:13:22;8.73;;;1.05;;
80576;SDS011;69937;52.420;10.538;2023-09-19T21:18:23;3.13;;;0.85;;
80576;SDS011;69937;52.420;10.538;2023-09-19T21:23:24;3.10;;;1.20;;
80576;SDS011;69937;52.420;10.538;2023-09-19T21:28:25;4.40;;;1.15;;
80576;SDS011;69937;52.420;10.538;2023-09-19T21:33:27;3.53;;;0.85;;
80576;SDS011;69937;52.420;10.538;2023-09-19T21:38:28;7.28;;;0.93;;
80576;SDS011;69937;52.420;10.538;2023-09-19T21:43:29;8.05;;;1.25;;
80576;SDS011;69937;52.420;10.538;2023-09-19T21:48:30;3.45;;;0.90;;
80576;SDS011;69937;52.420;10.538;2023-09-19T21:53:31;7.25;;;0.98;;
80576;SDS011;69937;52.420;10.538;2023-09-19T21:58:34;4.28;;;1.10;;
80576;SDS011;69937;52.420;10.538;2023-09-19T22:03:37;2.25;;;0.73;;
80576;SDS011;69937;52.420;10.538;2023-09-19T22:08:39;2.20;;;0.98;;
80576;SDS011;69937;52.420;10.538;2023-09-19T22:13:40;4.10;;;0.90;;
80576;SDS011;69937;52.420;10.538;2023-09-19T22:18:43;1.65;;;1.10;;
80576;SDS011;69937;52.420;10.538;2023-09-19T22:23:47;3.53;;;1.00;;
80576;SDS011;69937;52.420;10.538;2023-09-19T22:28:50;8.38;;;1.15;;
80576;SDS011;69937;52.420;10.538;2023-09-19T22:33:53;3.25;;;0.95;;
80576;SDS011;69937;52.420;10.538;2023-09-19T22:38:54;5.22;;;1.02;;
80576;SDS011;69937;52.420;10.538;2023-09-19T22:43:59;4.25;;;1.02;;
80576;SDS011;69937;52.420;10.538;2023-09-19T22:49:00;4.97;;;1.58;;
80576;SDS011;69937;52.420;10.538;2023-09-19T22:54:01;3.50;;;1.25;;
80576;SDS011;69937;52.420;10.538;2023-09-19T22:59:10;2.17;;;0.77;;
80576;SDS011;69937;52.420;10.538;2023-09-19T23:04:12;7.57;;;1.20;;
80576;SDS011;69937;52.420;10.538;2023-09-19T23:09:13;3.33;;;1.00;;
80576;SDS011;69937;52.420;10.538;2023-09-19T23:14:24;4.30;;;1.27;;
80576;SDS011;69937;52.420;10.538;2023-09-19T23:19:33;4.30;;;1.00;;
80576;SDS011;69937;52.420;10.538;2023-09-19T23:24:33;5.57;;;1.10;;
80576;SDS011;69937;52.420;10.538;2023-09-19T23:29:37;4.78;;;1.08;;
80576;SDS011;69937;52.420;10.538;2023-09-19T23:34:39;2.70;;;0.90;;
80576;SDS011;69937;52.420;10.538;2023-09-19T23:39:39;5.30;;;1.20;;
80576;SDS011;69937;52.420;10.538;2023-09-19T23:44:43;4.05;;;0.98;;
80576;SDS011;69937;52.420;10.538;2023-09-19T23:49:48;3.00;;;1.05;;
80576;SDS011;69937;52.420;10.538;2023-09-19T23:54:49;4.10;;;1.05;;
80576;SDS011;69937;52.420;10.538;2023-09-19T23:59:50;3.47;;;0.82;;
